sensor_id;sensor_type;location;lat;lon;timestamp;temperature;humidity
5352;DHT22;2698;51.454;6.736;2022-08-19T00:01:19;20.10;99.90
5352;DHT22;2698;51.454;6.736;2022-08-19T00:03:46;20.10;99.90
5352;DHT22;2698;51.454;6.736;2022-08-19T00:06:13;20.10;99.90
5352;DHT22;2698;51.454;6.736;2022-08-19T00:08:40;20.00;99.90
5352;DHT22;2698;51.454;6.736;2022-08-19T00:11:07;19.90;99.90
5352;DHT22;2698;51.454;6.736;2022-08-19T00:13:34;19.90;99.90
5352;DHT22;2698;51.454;6.736;2022-08-19T00:16:03;19.80;99.90
5352;DHT22;2698;51.454;6.736;2022-08-19T00:18:31;19.70;99.90
5352;DHT22;2698;51.454;6.736;2022-08-19T00:20:58;19.70;99.90
5352;DHT22;2698;51.454;6.736;2022-08-19T00:23:26;19.70;99.90
5352;DHT22;2698;51.454;6.736;2022-08-19T00:25:52;19.60;99.90
5352;DHT22;2698;51.454;6.736;2022-08-19T00:28:20;19.60;99.90
5352;DHT22;2698;51.454;6.736;2022-08-19T00:30:47;19.60;99.90
5352;DHT22;2698;51.454;6.736;2022-08-19T00:33:15;19.60;99.90
5352;DHT22;2698;51.454;6.736;2022-08-19T00:35:42;19.50;99.90
5352;DHT22;2698;51.454;6.736;2022-08-19T00:38:08;19.50;99.90
5352;DHT22;2698;51.454;6.736;2022-08-19T00:40:35;19.50;99.90
5352;DHT22;2698;51.454;6.736;2022-08-19T00:43:08;19.50;99.90
5352;DHT22;2698;51.454;6.736;2022-08-19T00:45:35;19.40;99.90
5352;DHT22;2698;51.454;6.736;2022-08-19T00:48:02;19.50;99.90
5352;DHT22;2698;51.454;6.736;2022-08-19T00:50:31;19.40;99.90
5352;DHT22;2698;51.454;6.736;2022-08-19T00:52:58;19.40;99.90
5352;DHT22;2698;51.454;6.736;2022-08-19T00:55:26;19.40;99.90
5352;DHT22;2698;51.454;6.736;2022-08-19T00:57:57;19.30;99.90
5352;DHT22;2698;51.454;6.736;2022-08-19T01:00:26;19.30;99.90
5352;DHT22;2698;51.454;6.736;2022-08-19T01:02:54;19.30;99.90
5352;DHT22;2698;51.454;6.736;2022-08-19T01:05:23;19.30;99.90
5352;DHT22;2698;51.454;6.736;2022-08-19T01:07:54;19.20;99.90
5352;DHT22;2698;51.454;6.736;2022-08-19T01:10:25;19.20;99.90
5352;DHT22;2698;51.454;6.736;2022-08-19T01:12:54;19.20;99.90
5352;DHT22;2698;51.454;6.736;2022-08-19T01:15:26;19.20;99.90
5352;DHT22;2698;51.454;6.736;2022-08-19T01:17:54;19.10;99.90
5352;DHT22;2698;51.454;6.736;2022-08-19T01:20:23;19.20;99.90
5352;DHT22;2698;51.454;6.736;2022-08-19T01:22:53;19.20;99.90
5352;DHT22;2698;51.454;6.736;2022-08-19T01:25:24;19.20;99.90
5352;DHT22;2698;51.454;6.736;2022-08-19T01:27:52;19.10;99.90
5352;DHT22;2698;51.454;6.736;2022-08-19T01:30:21;19.10;99.90
5352;DHT22;2698;51.454;6.736;2022-08-19T01:32:49;19.10;99.90
5352;DHT22;2698;51.454;6.736;2022-08-19T01:35:16;19.00;99.90
5352;DHT22;2698;51.454;6.736;2022-08-19T01:37:46;19.00;99.90
5352;DHT22;2698;51.454;6.736;2022-08-19T01:40:14;19.00;99.90
5352;DHT22;2698;51.454;6.736;2022-08-19T01:42:41;18.90;99.90
5352;DHT22;2698;51.454;6.736;2022-08-19T01:45:09;19.00;99.90
5352;DHT22;2698;51.454;6.736;2022-08-19T01:47:37;18.90;99.90
5352;DHT22;2698;51.454;6.736;2022-08-19T01:50:05;18.90;99.90
5352;DHT22;2698;51.454;6.736;2022-08-19T01:52:34;18.90;99.90
5352;DHT22;2698;51.454;6.736;2022-08-19T01:55:01;18.90;99.90
5352;DHT22;2698;51.454;6.736;2022-08-19T01:57:29;18.90;99.90
5352;DHT22;2698;51.454;6.736;2022-08-19T01:59:56;18.90;99.90
5352;DHT22;2698;51.454;6.736;2022-08-19T02:02:23;18.90;99.90
5352;DHT22;2698;51.454;6.736;2022-08-19T02:04:50;18.90;99.90
5352;DHT22;2698;51.454;6.736;2022-08-19T02:07:19;18.90;99.90
5352;DHT22;2698;51.454;6.736;2022-08-19T02:09:46;18.90;99.90
5352;DHT22;2698;51.454;6.736;2022-08-19T02:12:13;18.80;99.90
5352;DHT22;2698;51.454;6.736;2022-08-19T02:14:43;18.80;99.90
5352;DHT22;2698;51.454;6.736;2022-08-19T02:17:10;18.80;99.90
5352;DHT22;2698;51.454;6.736;2022-08-19T02:19:36;18.80;99.90
5352;DHT22;2698;51.454;6.736;2022-08-19T02:22:04;18.90;99.90
5352;DHT22;2698;51.454;6.736;2022-08-19T02:24:31;18.80;99.90
5352;DHT22;2698;51.454;6.736;2022-08-19T02:26:58;18.80;99.90
5352;DHT22;2698;51.454;6.736;2022-08-19T02:29:25;18.80;99.90
5352;DHT22;2698;51.454;6.736;2022-08-19T02:31:53;18.80;99.90
5352;DHT22;2698;51.454;6.736;2022-08-19T02:34:20;18.80;99.90
5352;DHT22;2698;51.454;6.736;2022-08-19T02:36:47;18.90;99.90
5352;DHT22;2698;51.454;6.736;2022-08-19T02:39:13;18.90;99.90
5352;DHT22;2698;51.454;6.736;2022-08-19T02:41:39;19.00;99.90
5352;DHT22;2698;51.454;6.736;2022-08-19T02:44:06;19.00;99.90
5352;DHT22;2698;51.454;6.736;2022-08-19T02:46:35;19.00;99.90
5352;DHT22;2698;51.454;6.736;2022-08-19T02:49:05;19.00;99.90
5352;DHT22;2698;51.454;6.736;2022-08-19T02:51:34;19.00;99.90
5352;DHT22;2698;51.454;6.736;2022-08-19T02:54:02;19.00;99.90
5352;DHT22;2698;51.454;6.736;2022-08-19T02:56:30;18.90;99.90
5352;DHT22;2698;51.454;6.736;2022-08-19T02:58:57;19.00;99.90
5352;DHT22;2698;51.454;6.736;2022-08-19T03:01:26;18.90;99.90
5352;DHT22;2698;51.454;6.736;2022-08-19T03:03:54;19.00;99.90
5352;DHT22;2698;51.454;6.736;2022-08-19T03:06:22;18.90;99.90
5352;DHT22;2698;51.454;6.736;2022-08-19T03:08:49;18.90;99.90
5352;DHT22;2698;51.454;6.736;2022-08-19T03:11:18;18.90;99.90
5352;DHT22;2698;51.454;6.736;2022-08-19T03:13:46;18.90;99.90
5352;DHT22;2698;51.454;6.736;2022-08-19T03:16:14;18.80;99.90
5352;DHT22;2698;51.454;6.736;2022-08-19T03:18:41;18.90;99.90
5352;DHT22;2698;51.454;6.736;2022-08-19T03:21:08;18.90;99.90
5352;DHT22;2698;51.454;6.736;2022-08-19T03:23:37;18.90;99.90
5352;DHT22;2698;51.454;6.736;2022-08-19T03:26:05;18.90;99.90
5352;DHT22;2698;51.454;6.736;2022-08-19T03:28:33;18.80;99.90
5352;DHT22;2698;51.454;6.736;2022-08-19T03:31:02;18.80;99.90
5352;DHT22;2698;51.454;6.736;2022-08-19T03:33:30;18.80;99.90
5352;DHT22;2698;51.454;6.736;2022-08-19T03:36:05;18.80;99.90
5352;DHT22;2698;51.454;6.736;2022-08-19T03:38:34;18.80;99.90
5352;DHT22;2698;51.454;6.736;2022-08-19T03:41:07;18.80;99.90
5352;DHT22;2698;51.454;6.736;2022-08-19T03:43:36;18.70;99.90
5352;DHT22;2698;51.454;6.736;2022-08-19T03:46:04;18.80;99.90
5352;DHT22;2698;51.454;6.736;2022-08-19T03:48:32;18.70;99.90
5352;DHT22;2698;51.454;6.736;2022-08-19T03:50:59;18.70;99.90
5352;DHT22;2698;51.454;6.736;2022-08-19T03:53:28;18.60;99.90
5352;DHT22;2698;51.454;6.736;2022-08-19T03:55:56;18.70;99.90
5352;DHT22;2698;51.454;6.736;2022-08-19T03:58:26;18.60;99.90
5352;DHT22;2698;51.454;6.736;2022-08-19T04:00:54;18.60;99.90
5352;DHT22;2698;51.454;6.736;2022-08-19T04:03:21;18.60;99.90
5352;DHT22;2698;51.454;6.736;2022-08-19T04:05:48;18.60;99.90
5352;DHT22;2698;51.454;6.736;2022-08-19T04:08:16;18.50;99.90
5352;DHT22;2698;51.454;6.736;2022-08-19T04:10:44;18.50;99.90
5352;DHT22;2698;51.454;6.736;2022-08-19T04:13:11;18.50;99.90
5352;DHT22;2698;51.454;6.736;2022-08-19T04:15:41;18.40;99.90
5352;DHT22;2698;51.454;6.736;2022-08-19T04:18:08;18.40;99.90
5352;DHT22;2698;51.454;6.736;2022-08-19T04:20:40;18.40;99.90
5352;DHT22;2698;51.454;6.736;2022-08-19T04:23:07;18.40;99.90
5352;DHT22;2698;51.454;6.736;2022-08-19T04:25:36;18.40;99.90
5352;DHT22;2698;51.454;6.736;2022-08-19T04:28:03;18.30;99.90
5352;DHT22;2698;51.454;6.736;2022-08-19T04:30:30;18.30;99.90
5352;DHT22;2698;51.454;6.736;2022-08-19T04:32:59;18.30;99.90
5352;DHT22;2698;51.454;6.736;2022-08-19T04:35:25;18.30;99.90
5352;DHT22;2698;51.454;6.736;2022-08-19T04:37:52;18.30;99.90
5352;DHT22;2698;51.454;6.736;2022-08-19T04:40:19;18.30;99.90
5352;DHT22;2698;51.454;6.736;2022-08-19T04:43:04;18.30;99.90
5352;DHT22;2698;51.454;6.736;2022-08-19T04:45:30;18.30;99.90
5352;DHT22;2698;51.454;6.736;2022-08-19T04:47:59;18.30;99.90
5352;DHT22;2698;51.454;6.736;2022-08-19T04:50:27;18.30;99.90
5352;DHT22;2698;51.454;6.736;2022-08-19T04:52:54;18.30;99.90
5352;DHT22;2698;51.454;6.736;2022-08-19T04:55:21;18.30;99.90
5352;DHT22;2698;51.454;6.736;2022-08-19T04:57:48;18.40;99.90
5352;DHT22;2698;51.454;6.736;2022-08-19T05:00:16;18.40;99.90
5352;DHT22;2698;51.454;6.736;2022-08-19T05:02:43;18.40;99.90
5352;DHT22;2698;51.454;6.736;2022-08-19T05:05:11;18.60;99.90
5352;DHT22;2698;51.454;6.736;2022-08-19T05:07:38;18.50;99.90
5352;DHT22;2698;51.454;6.736;2022-08-19T05:10:07;18.60;99.90
5352;DHT22;2698;51.454;6.736;2022-08-19T05:12:34;18.60;99.90
5352;DHT22;2698;51.454;6.736;2022-08-19T05:15:03;18.70;99.90
5352;DHT22;2698;51.454;6.736;2022-08-19T05:17:31;18.80;99.90
5352;DHT22;2698;51.454;6.736;2022-08-19T05:19:58;18.80;99.90
5352;DHT22;2698;51.454;6.736;2022-08-19T05:22:46;18.80;99.90
5352;DHT22;2698;51.454;6.736;2022-08-19T05:25:15;18.90;99.90
5352;DHT22;2698;51.454;6.736;2022-08-19T05:27:44;18.90;99.90
5352;DHT22;2698;51.454;6.736;2022-08-19T05:30:11;18.90;99.90
5352;DHT22;2698;51.454;6.736;2022-08-19T05:32:39;18.90;99.90
5352;DHT22;2698;51.454;6.736;2022-08-19T05:35:07;19.00;99.90
5352;DHT22;2698;51.454;6.736;2022-08-19T05:37:34;19.10;99.90
5352;DHT22;2698;51.454;6.736;2022-08-19T05:40:03;19.10;99.90
5352;DHT22;2698;51.454;6.736;2022-08-19T05:42:30;19.10;99.90
5352;DHT22;2698;51.454;6.736;2022-08-19T05:44:57;19.20;99.90
5352;DHT22;2698;51.454;6.736;2022-08-19T05:47:24;19.20;99.90
5352;DHT22;2698;51.454;6.736;2022-08-19T05:49:51;19.20;99.90
5352;DHT22;2698;51.454;6.736;2022-08-19T05:52:19;19.30;99.90
5352;DHT22;2698;51.454;6.736;2022-08-19T05:54:46;19.40;99.90
5352;DHT22;2698;51.454;6.736;2022-08-19T05:57:18;19.40;99.90
5352;DHT22;2698;51.454;6.736;2022-08-19T05:59:45;19.40;99.90
5352;DHT22;2698;51.454;6.736;2022-08-19T06:02:15;19.50;99.90
5352;DHT22;2698;51.454;6.736;2022-08-19T06:04:42;19.60;99.90
5352;DHT22;2698;51.454;6.736;2022-08-19T06:07:09;19.70;99.90
5352;DHT22;2698;51.454;6.736;2022-08-19T06:09:37;19.70;99.90
5352;DHT22;2698;51.454;6.736;2022-08-19T06:12:04;19.80;99.90
5352;DHT22;2698;51.454;6.736;2022-08-19T06:14:34;19.80;99.90
5352;DHT22;2698;51.454;6.736;2022-08-19T06:17:02;19.90;99.90
5352;DHT22;2698;51.454;6.736;2022-08-19T06:19:30;20.00;99.90
5352;DHT22;2698;51.454;6.736;2022-08-19T06:21:59;20.10;99.90
5352;DHT22;2698;51.454;6.736;2022-08-19T06:24:28;20.10;99.90
5352;DHT22;2698;51.454;6.736;2022-08-19T06:26:57;20.20;99.90
5352;DHT22;2698;51.454;6.736;2022-08-19T06:29:26;20.20;99.90
5352;DHT22;2698;51.454;6.736;2022-08-19T06:31:57;20.40;99.90
5352;DHT22;2698;51.454;6.736;2022-08-19T06:34:25;20.60;99.90
5352;DHT22;2698;51.454;6.736;2022-08-19T06:36:53;21.70;99.90
5352;DHT22;2698;51.454;6.736;2022-08-19T06:39:23;22.30;99.90
5352;DHT22;2698;51.454;6.736;2022-08-19T06:41:53;22.40;99.90
5352;DHT22;2698;51.454;6.736;2022-08-19T06:44:23;22.50;99.90
5352;DHT22;2698;51.454;6.736;2022-08-19T06:46:51;22.60;99.90
5352;DHT22;2698;51.454;6.736;2022-08-19T06:49:19;22.90;99.90
5352;DHT22;2698;51.454;6.736;2022-08-19T06:51:47;23.20;99.90
5352;DHT22;2698;51.454;6.736;2022-08-19T06:54:15;22.90;99.90
5352;DHT22;2698;51.454;6.736;2022-08-19T06:56:42;22.80;99.90
5352;DHT22;2698;51.454;6.736;2022-08-19T06:59:13;22.60;99.90
5352;DHT22;2698;51.454;6.736;2022-08-19T07:01:43;22.60;99.90
5352;DHT22;2698;51.454;6.736;2022-08-19T07:04:13;23.00;99.90
5352;DHT22;2698;51.454;6.736;2022-08-19T07:06:43;23.40;99.90
5352;DHT22;2698;51.454;6.736;2022-08-19T07:09:12;23.70;99.90
5352;DHT22;2698;51.454;6.736;2022-08-19T07:11:44;23.90;99.90
5352;DHT22;2698;51.454;6.736;2022-08-19T07:14:12;24.10;99.90
5352;DHT22;2698;51.454;6.736;2022-08-19T07:16:40;24.60;99.90
5352;DHT22;2698;51.454;6.736;2022-08-19T07:19:06;24.50;99.90
5352;DHT22;2698;51.454;6.736;2022-08-19T07:21:35;24.60;99.90
5352;DHT22;2698;51.454;6.736;2022-08-19T07:24:04;24.80;99.90
5352;DHT22;2698;51.454;6.736;2022-08-19T07:26:33;25.00;99.90
5352;DHT22;2698;51.454;6.736;2022-08-19T07:29:00;25.10;99.90
5352;DHT22;2698;51.454;6.736;2022-08-19T07:31:28;25.10;99.90
5352;DHT22;2698;51.454;6.736;2022-08-19T07:33:56;25.00;99.90
5352;DHT22;2698;51.454;6.736;2022-08-19T07:36:25;24.50;99.90
5352;DHT22;2698;51.454;6.736;2022-08-19T07:38:59;24.90;99.90
5352;DHT22;2698;51.454;6.736;2022-08-19T07:41:29;25.50;99.90
5352;DHT22;2698;51.454;6.736;2022-08-19T07:43:57;25.70;99.90
5352;DHT22;2698;51.454;6.736;2022-08-19T07:46:30;25.60;99.90
5352;DHT22;2698;51.454;6.736;2022-08-19T07:48:57;25.80;99.90
5352;DHT22;2698;51.454;6.736;2022-08-19T07:51:26;25.50;99.90
5352;DHT22;2698;51.454;6.736;2022-08-19T07:53:53;25.70;99.90
5352;DHT22;2698;51.454;6.736;2022-08-19T07:56:21;25.60;99.90
5352;DHT22;2698;51.454;6.736;2022-08-19T07:58:50;25.20;99.90
5352;DHT22;2698;51.454;6.736;2022-08-19T08:01:20;24.90;99.90
5352;DHT22;2698;51.454;6.736;2022-08-19T08:03:47;25.10;99.90
5352;DHT22;2698;51.454;6.736;2022-08-19T08:06:32;25.30;99.90
5352;DHT22;2698;51.454;6.736;2022-08-19T08:09:18;25.60;99.90
5352;DHT22;2698;51.454;6.736;2022-08-19T08:11:49;25.60;99.90
5352;DHT22;2698;51.454;6.736;2022-08-19T08:14:20;25.90;99.90
5352;DHT22;2698;51.454;6.736;2022-08-19T08:16:49;25.90;99.90
5352;DHT22;2698;51.454;6.736;2022-08-19T08:19:18;25.80;99.90
5352;DHT22;2698;51.454;6.736;2022-08-19T08:21:45;25.60;99.90
5352;DHT22;2698;51.454;6.736;2022-08-19T08:24:12;25.90;99.90
5352;DHT22;2698;51.454;6.736;2022-08-19T08:26:39;25.90;99.90
5352;DHT22;2698;51.454;6.736;2022-08-19T08:29:06;25.50;99.90
5352;DHT22;2698;51.454;6.736;2022-08-19T08:31:39;25.30;99.90
5352;DHT22;2698;51.454;6.736;2022-08-19T08:34:06;25.30;99.90
5352;DHT22;2698;51.454;6.736;2022-08-19T08:36:36;25.30;99.90
5352;DHT22;2698;51.454;6.736;2022-08-19T08:39:07;25.60;99.90
5352;DHT22;2698;51.454;6.736;2022-08-19T08:41:37;25.70;99.90
5352;DHT22;2698;51.454;6.736;2022-08-19T08:44:13;25.60;99.90
5352;DHT22;2698;51.454;6.736;2022-08-19T08:46:44;25.40;99.90
5352;DHT22;2698;51.454;6.736;2022-08-19T08:49:29;25.40;99.90
5352;DHT22;2698;51.454;6.736;2022-08-19T08:52:02;25.50;99.90
5352;DHT22;2698;51.454;6.736;2022-08-19T08:54:34;25.70;99.90
5352;DHT22;2698;51.454;6.736;2022-08-19T08:57:04;25.80;99.90
5352;DHT22;2698;51.454;6.736;2022-08-19T08:59:36;25.70;99.90
5352;DHT22;2698;51.454;6.736;2022-08-19T09:02:05;25.50;99.90
5352;DHT22;2698;51.454;6.736;2022-08-19T09:04:31;25.60;99.90
5352;DHT22;2698;51.454;6.736;2022-08-19T09:07:13;25.90;99.90
5352;DHT22;2698;51.454;6.736;2022-08-19T09:09:44;25.90;99.90
5352;DHT22;2698;51.454;6.736;2022-08-19T09:12:18;25.90;99.90
5352;DHT22;2698;51.454;6.736;2022-08-19T09:14:49;25.90;99.90
5352;DHT22;2698;51.454;6.736;2022-08-19T09:17:20;25.70;99.90
5352;DHT22;2698;51.454;6.736;2022-08-19T09:19:56;25.80;99.90
5352;DHT22;2698;51.454;6.736;2022-08-19T09:22:23;25.60;99.90
5352;DHT22;2698;51.454;6.736;2022-08-19T09:24:52;26.00;99.90
5352;DHT22;2698;51.454;6.736;2022-08-19T09:27:20;26.00;99.90
5352;DHT22;2698;51.454;6.736;2022-08-19T09:29:49;25.90;99.90
5352;DHT22;2698;51.454;6.736;2022-08-19T09:32:16;26.10;99.90
5352;DHT22;2698;51.454;6.736;2022-08-19T09:34:45;26.50;99.90
5352;DHT22;2698;51.454;6.736;2022-08-19T09:37:12;26.50;99.90
5352;DHT22;2698;51.454;6.736;2022-08-19T09:39:39;26.60;99.90
5352;DHT22;2698;51.454;6.736;2022-08-19T09:42:07;26.50;99.90
5352;DHT22;2698;51.454;6.736;2022-08-19T09:44:37;26.60;99.90
5352;DHT22;2698;51.454;6.736;2022-08-19T09:47:04;26.50;99.90
5352;DHT22;2698;51.454;6.736;2022-08-19T09:49:32;26.20;99.90
5352;DHT22;2698;51.454;6.736;2022-08-19T09:52:01;26.30;99.90
5352;DHT22;2698;51.454;6.736;2022-08-19T09:54:28;26.40;99.90
5352;DHT22;2698;51.454;6.736;2022-08-19T09:56:55;26.60;99.90
5352;DHT22;2698;51.454;6.736;2022-08-19T09:59:26;26.50;99.90
5352;DHT22;2698;51.454;6.736;2022-08-19T10:01:53;26.50;99.90
5352;DHT22;2698;51.454;6.736;2022-08-19T10:04:20;26.40;99.90
5352;DHT22;2698;51.454;6.736;2022-08-19T10:06:48;26.40;99.90
5352;DHT22;2698;51.454;6.736;2022-08-19T10:09:17;26.70;99.90
5352;DHT22;2698;51.454;6.736;2022-08-19T10:11:45;26.70;99.90
5352;DHT22;2698;51.454;6.736;2022-08-19T10:14:15;26.70;99.90
5352;DHT22;2698;51.454;6.736;2022-08-19T10:16:42;27.00;99.90
5352;DHT22;2698;51.454;6.736;2022-08-19T10:19:09;26.50;99.90
5352;DHT22;2698;51.454;6.736;2022-08-19T10:21:36;26.90;99.90
5352;DHT22;2698;51.454;6.736;2022-08-19T10:24:05;27.10;99.90
5352;DHT22;2698;51.454;6.736;2022-08-19T10:26:36;27.00;99.90
5352;DHT22;2698;51.454;6.736;2022-08-19T10:29:04;27.10;99.90
5352;DHT22;2698;51.454;6.736;2022-08-19T10:31:32;27.00;99.90
5352;DHT22;2698;51.454;6.736;2022-08-19T10:34:00;27.30;99.90
5352;DHT22;2698;51.454;6.736;2022-08-19T10:36:30;27.20;99.90
5352;DHT22;2698;51.454;6.736;2022-08-19T10:38:58;27.50;99.90
5352;DHT22;2698;51.454;6.736;2022-08-19T10:41:29;27.50;99.90
5352;DHT22;2698;51.454;6.736;2022-08-19T10:43:59;27.80;98.90
5352;DHT22;2698;51.454;6.736;2022-08-19T10:46:27;27.90;96.60
5352;DHT22;2698;51.454;6.736;2022-08-19T10:48:56;27.50;96.00
5352;DHT22;2698;51.454;6.736;2022-08-19T10:51:23;27.90;95.70
5352;DHT22;2698;51.454;6.736;2022-08-19T10:54:07;27.90;93.50
5352;DHT22;2698;51.454;6.736;2022-08-19T10:56:35;28.20;93.00
5352;DHT22;2698;51.454;6.736;2022-08-19T10:59:23;28.10;88.10
5352;DHT22;2698;51.454;6.736;2022-08-19T11:01:51;28.10;88.90
5352;DHT22;2698;51.454;6.736;2022-08-19T11:04:19;27.80;82.00
5352;DHT22;2698;51.454;6.736;2022-08-19T11:06:48;27.80;82.30
5352;DHT22;2698;51.454;6.736;2022-08-19T11:09:19;27.70;82.60
5352;DHT22;2698;51.454;6.736;2022-08-19T11:11:46;28.00;80.20
5352;DHT22;2698;51.454;6.736;2022-08-19T11:14:15;28.10;82.50
5352;DHT22;2698;51.454;6.736;2022-08-19T11:16:45;28.00;78.10
5352;DHT22;2698;51.454;6.736;2022-08-19T11:19:12;27.80;83.00
5352;DHT22;2698;51.454;6.736;2022-08-19T11:21:42;27.80;80.50
5352;DHT22;2698;51.454;6.736;2022-08-19T11:24:11;27.30;80.20
5352;DHT22;2698;51.454;6.736;2022-08-19T11:26:39;27.30;77.80
5352;DHT22;2698;51.454;6.736;2022-08-19T11:29:07;27.80;79.50
5352;DHT22;2698;51.454;6.736;2022-08-19T11:31:38;27.90;79.70
5352;DHT22;2698;51.454;6.736;2022-08-19T11:34:09;27.50;76.30
5352;DHT22;2698;51.454;6.736;2022-08-19T11:36:39;27.70;78.90
5352;DHT22;2698;51.454;6.736;2022-08-19T11:39:06;28.20;75.80
5352;DHT22;2698;51.454;6.736;2022-08-19T11:41:34;28.30;73.00
5352;DHT22;2698;51.454;6.736;2022-08-19T11:44:02;28.10;73.60
5352;DHT22;2698;51.454;6.736;2022-08-19T11:46:30;27.90;72.90
5352;DHT22;2698;51.454;6.736;2022-08-19T11:48:58;27.80;74.00
5352;DHT22;2698;51.454;6.736;2022-08-19T11:51:27;27.80;74.20
5352;DHT22;2698;51.454;6.736;2022-08-19T11:53:56;27.50;72.60
5352;DHT22;2698;51.454;6.736;2022-08-19T11:56:24;27.10;75.00
5352;DHT22;2698;51.454;6.736;2022-08-19T11:58:51;27.20;70.60
5352;DHT22;2698;51.454;6.736;2022-08-19T12:01:20;27.40;66.20
5352;DHT22;2698;51.454;6.736;2022-08-19T12:03:50;27.40;62.80
5352;DHT22;2698;51.454;6.736;2022-08-19T12:06:19;27.40;65.10
5352;DHT22;2698;51.454;6.736;2022-08-19T12:08:49;27.80;66.00
5352;DHT22;2698;51.454;6.736;2022-08-19T12:11:17;28.10;64.00
5352;DHT22;2698;51.454;6.736;2022-08-19T12:13:44;28.30;63.10
5352;DHT22;2698;51.454;6.736;2022-08-19T12:16:15;28.10;64.60
5352;DHT22;2698;51.454;6.736;2022-08-19T12:18:43;28.30;63.70
5352;DHT22;2698;51.454;6.736;2022-08-19T12:21:12;28.60;62.90
5352;DHT22;2698;51.454;6.736;2022-08-19T12:23:39;28.50;59.40
5352;DHT22;2698;51.454;6.736;2022-08-19T12:26:09;28.40;58.00
5352;DHT22;2698;51.454;6.736;2022-08-19T12:28:36;28.60;56.90
5352;DHT22;2698;51.454;6.736;2022-08-19T12:31:03;28.30;55.50
5352;DHT22;2698;51.454;6.736;2022-08-19T12:33:30;28.60;55.80
5352;DHT22;2698;51.454;6.736;2022-08-19T12:36:01;28.50;52.70
5352;DHT22;2698;51.454;6.736;2022-08-19T12:38:29;28.50;54.00
5352;DHT22;2698;51.454;6.736;2022-08-19T12:40:56;28.20;51.00
5352;DHT22;2698;51.454;6.736;2022-08-19T12:43:24;28.50;50.00
5352;DHT22;2698;51.454;6.736;2022-08-19T12:45:51;28.60;49.20
5352;DHT22;2698;51.454;6.736;2022-08-19T12:48:18;28.50;48.80
5352;DHT22;2698;51.454;6.736;2022-08-19T12:50:45;28.50;48.40
5352;DHT22;2698;51.454;6.736;2022-08-19T12:53:13;28.00;49.40
5352;DHT22;2698;51.454;6.736;2022-08-19T12:55:40;28.30;50.80
5352;DHT22;2698;51.454;6.736;2022-08-19T12:58:08;28.40;50.10
5352;DHT22;2698;51.454;6.736;2022-08-19T13:00:36;28.40;48.20
5352;DHT22;2698;51.454;6.736;2022-08-19T13:03:03;28.30;46.60
5352;DHT22;2698;51.454;6.736;2022-08-19T13:05:32;28.60;45.20
5352;DHT22;2698;51.454;6.736;2022-08-19T13:08:00;28.20;45.30
5352;DHT22;2698;51.454;6.736;2022-08-19T13:10:29;28.00;47.90
5352;DHT22;2698;51.454;6.736;2022-08-19T13:12:57;28.10;48.90
5352;DHT22;2698;51.454;6.736;2022-08-19T13:15:25;27.90;49.40
5352;DHT22;2698;51.454;6.736;2022-08-19T13:17:56;28.10;49.60
5352;DHT22;2698;51.454;6.736;2022-08-19T13:20:24;28.30;48.10
5352;DHT22;2698;51.454;6.736;2022-08-19T13:22:51;27.90;48.70
5352;DHT22;2698;51.454;6.736;2022-08-19T13:25:18;27.80;48.00
5352;DHT22;2698;51.454;6.736;2022-08-19T13:27:47;27.80;49.10
5352;DHT22;2698;51.454;6.736;2022-08-19T13:30:16;28.20;48.50
5352;DHT22;2698;51.454;6.736;2022-08-19T13:33:02;28.10;48.70
5352;DHT22;2698;51.454;6.736;2022-08-19T13:35:41;28.30;48.80
5352;DHT22;2698;51.454;6.736;2022-08-19T13:38:09;28.10;48.50
5352;DHT22;2698;51.454;6.736;2022-08-19T13:40:36;28.10;48.20
5352;DHT22;2698;51.454;6.736;2022-08-19T13:43:04;28.40;47.80
5352;DHT22;2698;51.454;6.736;2022-08-19T13:45:33;28.20;47.50
5352;DHT22;2698;51.454;6.736;2022-08-19T13:48:03;28.10;46.60
5352;DHT22;2698;51.454;6.736;2022-08-19T13:50:33;28.10;45.70
5352;DHT22;2698;51.454;6.736;2022-08-19T13:53:00;28.20;45.20
5352;DHT22;2698;51.454;6.736;2022-08-19T13:55:27;28.10;45.10
5352;DHT22;2698;51.454;6.736;2022-08-19T13:57:55;28.10;46.00
5352;DHT22;2698;51.454;6.736;2022-08-19T14:00:24;28.20;46.40
5352;DHT22;2698;51.454;6.736;2022-08-19T14:02:53;28.50;46.60
5352;DHT22;2698;51.454;6.736;2022-08-19T14:05:24;27.80;47.20
5352;DHT22;2698;51.454;6.736;2022-08-19T14:07:51;27.80;48.50
5352;DHT22;2698;51.454;6.736;2022-08-19T14:10:19;27.80;47.80
5352;DHT22;2698;51.454;6.736;2022-08-19T14:12:46;28.10;49.00
5352;DHT22;2698;51.454;6.736;2022-08-19T14:15:13;28.00;49.00
5352;DHT22;2698;51.454;6.736;2022-08-19T14:17:41;27.90;49.70
5352;DHT22;2698;51.454;6.736;2022-08-19T14:20:11;28.10;50.80
5352;DHT22;2698;51.454;6.736;2022-08-19T14:22:40;27.70;52.20
5352;DHT22;2698;51.454;6.736;2022-08-19T14:25:09;27.30;50.30
5352;DHT22;2698;51.454;6.736;2022-08-19T14:27:37;27.10;51.90
5352;DHT22;2698;51.454;6.736;2022-08-19T14:30:06;27.00;53.00
5352;DHT22;2698;51.454;6.736;2022-08-19T14:32:33;27.30;53.60
5352;DHT22;2698;51.454;6.736;2022-08-19T14:35:00;27.20;52.30
5352;DHT22;2698;51.454;6.736;2022-08-19T14:37:27;27.40;51.30
5352;DHT22;2698;51.454;6.736;2022-08-19T14:39:56;27.50;50.50
5352;DHT22;2698;51.454;6.736;2022-08-19T14:42:22;27.30;49.60
5352;DHT22;2698;51.454;6.736;2022-08-19T14:44:49;26.90;49.40
5352;DHT22;2698;51.454;6.736;2022-08-19T14:47:16;26.90;49.50
5352;DHT22;2698;51.454;6.736;2022-08-19T14:49:43;27.00;48.80
5352;DHT22;2698;51.454;6.736;2022-08-19T14:52:10;27.10;47.00
5352;DHT22;2698;51.454;6.736;2022-08-19T14:54:37;27.10;45.30
5352;DHT22;2698;51.454;6.736;2022-08-19T14:57:05;27.30;44.60
5352;DHT22;2698;51.454;6.736;2022-08-19T14:59:32;27.20;44.40
5352;DHT22;2698;51.454;6.736;2022-08-19T15:02:06;27.20;44.10
5352;DHT22;2698;51.454;6.736;2022-08-19T15:04:38;27.00;43.60
5352;DHT22;2698;51.454;6.736;2022-08-19T15:07:08;27.00;43.20
5352;DHT22;2698;51.454;6.736;2022-08-19T15:09:40;26.90;45.70
5352;DHT22;2698;51.454;6.736;2022-08-19T15:12:11;26.90;46.80
5352;DHT22;2698;51.454;6.736;2022-08-19T15:14:45;26.80;47.90
5352;DHT22;2698;51.454;6.736;2022-08-19T15:17:21;26.80;48.50
5352;DHT22;2698;51.454;6.736;2022-08-19T15:19:48;26.90;49.40
5352;DHT22;2698;51.454;6.736;2022-08-19T15:22:16;26.90;48.90
5352;DHT22;2698;51.454;6.736;2022-08-19T15:24:44;27.00;47.90
5352;DHT22;2698;51.454;6.736;2022-08-19T15:27:14;26.80;47.10
5352;DHT22;2698;51.454;6.736;2022-08-19T15:29:41;26.80;47.40
5352;DHT22;2698;51.454;6.736;2022-08-19T15:32:12;27.00;47.00
5352;DHT22;2698;51.454;6.736;2022-08-19T15:34:45;26.90;47.00
5352;DHT22;2698;51.454;6.736;2022-08-19T15:37:14;26.80;48.20
5352;DHT22;2698;51.454;6.736;2022-08-19T15:39:41;26.80;49.20
5352;DHT22;2698;51.454;6.736;2022-08-19T15:42:08;26.60;49.90
5352;DHT22;2698;51.454;6.736;2022-08-19T15:44:40;26.60;50.40
5352;DHT22;2698;51.454;6.736;2022-08-19T15:47:07;26.60;50.50
5352;DHT22;2698;51.454;6.736;2022-08-19T15:49:34;26.80;50.30
5352;DHT22;2698;51.454;6.736;2022-08-19T15:52:01;26.50;48.80
5352;DHT22;2698;51.454;6.736;2022-08-19T15:54:32;26.40;50.90
5352;DHT22;2698;51.454;6.736;2022-08-19T15:57:00;26.30;50.10
5352;DHT22;2698;51.454;6.736;2022-08-19T15:59:46;26.20;50.90
5352;DHT22;2698;51.454;6.736;2022-08-19T16:02:33;26.50;52.70
5352;DHT22;2698;51.454;6.736;2022-08-19T16:05:23;26.50;51.30
5352;DHT22;2698;51.454;6.736;2022-08-19T16:08:08;26.50;50.30
5352;DHT22;2698;51.454;6.736;2022-08-19T16:10:39;26.50;49.90
5352;DHT22;2698;51.454;6.736;2022-08-19T16:13:06;26.50;51.00